Time;durP1;ratioP1;P1;durP2;ratioP2;P2;SDS_P1;SDS_P2;PMS_P1;PMS_P2;Temp;Humidity;BMP_temperature;BMP_pressure;BME280_temperature;BME280_humidity;BME280_pressure;Samples;Min_cycle;Max_cycle;Signal;HPM_P1;HPM_P2
2021/11/03 00:00:26;;;;;;;69.47;33.22;;;;;;;6.18;77.57;95118.84;5046753;28;20025;-78
2021/11/03 00:02:51;;;;;;;61.95;31.38;;;;;;;6.13;78.70;95114.97;5046206;28;20108;-75
2021/11/03 00:05:17;;;;;;;74.10;34.17;;;;;;;6.21;77.57;95120.34;5030752;28;20531;-78
2021/11/03 00:07:42;;;;;;;69.68;33.78;;;;;;;6.13;77.86;95113.13;5028841;28;20411;-78
2021/11/03 00:10:09;;;;;;;81.60;36.28;;;;;;;6.11;78.21;95114.31;5048661;28;20025;-77
2021/11/03 00:12:35;;;;;;;87.18;31.38;;;;;;;6.11;79.71;95125.75;5028919;28;20060;-77
2021/11/03 00:15:03;;;;;;;61.40;32.08;;;;;;;6.11;79.30;95130.28;5047041;28;20511;-77
2021/11/03 00:17:28;;;;;;;74.30;33.95;;;;;;;6.14;78.69;95133.44;5046290;28;20021;-77
2021/11/03 00:19:53;;;;;;;65.45;30.50;;;;;;;6.15;78.00;95131.63;5046269;28;20036;-77
2021/11/03 00:22:19;;;;;;;52.08;23.92;;;;;;;6.19;76.41;95143.63;5047957;28;20079;-77
2021/11/03 00:24:45;;;;;;;58.90;25.92;;;;;;;6.10;76.78;95139.25;5029054;28;20086;-77
2021/11/03 00:27:10;;;;;;;54.45;24.70;;;;;;;6.02;77.36;95138.19;5030389;28;20023;-76
2021/11/03 00:29:36;;;;;;;52.15;23.60;;;;;;;6.02;77.08;95143.50;5044894;28;20075;-76
2021/11/03 00:32:02;;;;;;;47.42;23.55;;;;;;;6.09;76.82;95146.41;5030253;28;20035;-77
2021/11/03 00:34:28;;;;;;;47.33;21.63;;;;;;;6.16;76.15;95141.28;5045201;28;20055;-77
2021/11/03 00:36:53;;;;;;;48.75;24.77;;;;;;;6.04;75.30;95144.22;5047557;28;20608;-76
2021/11/03 00:39:22;;;;;;;53.35;26.30;;;;;;;5.95;75.36;95147.75;5047015;28;20035;-76
2021/11/03 00:41:48;;;;;;;51.05;24.95;;;;;;;5.91;76.01;95146.41;5046868;28;20029;-76
2021/11/03 00:44:13;;;;;;;56.15;25.17;;;;;;;5.92;76.16;95148.06;5047739;28;20039;-75
2021/11/03 00:46:39;;;;;;;54.38;26.20;;;;;;;5.91;75.64;95146.41;5037509;28;20037;-77
2021/11/03 00:49:04;;;;;;;50.00;24.08;;;;;;;5.90;75.71;95147.41;5028020;28;20033;-76
2021/11/03 00:51:30;;;;;;;55.58;24.13;;;;;;;5.86;76.56;95146.03;5024933;28;20470;-78
2021/11/03 00:53:56;;;;;;;52.95;24.95;;;;;;;5.86;75.82;95154.00;5026342;28;20107;-76
2021/11/03 00:56:21;;;;;;;52.40;25.75;;;;;;;5.80;76.49;95145.66;5025217;28;20025;-77
2021/11/03 00:58:47;;;;;;;46.45;24.42;;;;;;;5.80;76.53;95153.63;5025743;28;20083;-78
2021/11/03 01:01:12;;;;;;;48.95;22.85;;;;;;;5.79;76.53;95159.13;5027283;28;20479;-78
2021/11/03 01:03:38;;;;;;;49.25;23.20;;;;;;;5.76;77.21;95162.94;5025175;28;20407;-75
2021/11/03 01:06:03;;;;;;;48.63;22.02;;;;;;;5.76;76.30;95170.91;5026030;28;20472;-78
2021/11/03 01:08:28;;;;;;;44.33;21.17;;;;;;;5.74;75.94;95162.25;5024532;28;20033;-78
2021/11/03 01:10:54;;;;;;;46.10;20.67;;;;;;;5.69;76.52;95176.00;5026012;28;20026;-77
2021/11/03 01:13:21;;;;;;;38.50;18.95;;;;;;;5.68;77.21;95173.50;5024534;28;20025;-77
2021/11/03 01:15:47;;;;;;;41.72;19.35;;;;;;;5.78;76.30;95184.91;5025924;28;20033;-77
2021/11/03 01:18:12;;;;;;;33.45;17.05;;;;;;;5.65;77.49;95187.13;5026336;28;20655;-76
2021/11/03 01:20:38;;;;;;;36.22;17.80;;;;;;;5.71;77.12;95183.03;5025584;28;20103;-76
2021/11/03 01:23:04;;;;;;;32.13;16.92;;;;;;;5.71;76.84;95183.84;5025714;28;20037;-78
2021/11/03 01:25:29;;;;;;;28.83;16.27;;;;;;;5.84;76.44;95179.94;5023545;28;20033;-78
2021/11/03 01:27:54;;;;;;;34.28;16.52;;;;;;;5.89;76.20;95183.84;5027051;28;20439;-77
2021/11/03 01:30:20;;;;;;;36.33;17.08;;;;;;;5.84;76.19;95191.44;5024147;28;20029;-77
2021/11/03 01:32:46;;;;;;;46.22;17.85;;;;;;;5.69;77.32;95188.50;5026116;28;20056;-77
2021/11/03 01:35:11;;;;;;;50.42;18.02;;;;;;;5.57;78.64;95202.03;5024590;28;20068;-77
2021/11/03 01:37:38;;;;;;;32.33;16.48;;;;;;;5.68;77.51;95202.78;5027052;28;20021;-77
2021/11/03 01:40:05;;;;;;;36.22;17.48;;;;;;;5.64;78.43;95198.75;5008873;28;20068;-77
2021/11/03 01:42:32;;;;;;;31.67;16.88;;;;;;;5.63;79.17;95195.25;5024934;28;20057;-77
2021/11/03 01:44:58;;;;;;;40.22;19.70;;;;;;;5.63;78.98;95202.38;5025690;28;20029;-78
2021/11/03 01:47:54;;;;;;;37.78;18.25;;;;;;;5.63;78.52;95207.69;5038685;28;20442;-78
2021/11/03 01:50:35;;;;;;;41.20;18.90;;;;;;;5.78;77.57;95208.88;5046327;28;20029;-78
2021/11/03 01:53:07;;;;;;;39.33;17.45;;;;;;;5.77;77.67;95209.84;5045224;28;20029;-76
2021/11/03 01:55:32;;;;;;;34.83;16.50;;;;;;;5.82;76.87;95212.03;5044154;28;20032;-78
2021/11/03 01:58:06;;;;;;;28.27;14.93;;;;;;;5.95;75.67;95208.97;5029040;28;20025;-77
2021/11/03 02:00:34;;;;;;;30.77;15.90;;;;;;;5.80;76.81;95220.16;5044100;28;20055;-76
2021/11/03 02:03:08;;;;;;;31.38;16.67;;;;;;;5.80;76.81;95222.84;5029643;28;20036;-77
2021/11/03 02:05:34;;;;;;;30.60;16.27;;;;;;;5.82;77.13;95226.19;5028179;28;20032;-78
2021/11/03 02:07:59;;;;;;;31.17;15.13;;;;;;;5.79;77.52;95237.13;5028704;28;20033;-77
2021/11/03 02:10:25;;;;;;;29.65;15.52;;;;;;;6.00;76.19;95240.47;5028919;28;20056;-77
2021/11/03 02:12:50;;;;;;;27.95;15.48;;;;;;;5.92;76.87;95233.25;5027934;28;20033;-77
2021/11/03 02:15:15;;;;;;;30.45;14.98;;;;;;;5.90;77.50;95235.25;5045483;28;20029;-77
2021/11/03 02:17:41;;;;;;;39.40;16.98;;;;;;;5.80;77.36;95243.31;5044225;28;20039;-78
2021/11/03 02:20:08;;;;;;;31.67;15.73;;;;;;;5.92;76.92;95241.25;5030151;28;20049;-77
2021/11/03 02:22:52;;;;;;;36.55;17.20;;;;;;;5.84;77.41;95246.47;5029398;28;20087;-78
2021/11/03 02:25:20;;;;;;;35.25;17.65;;;;;;;5.79;78.25;95238.97;5046503;28;20025;-78
2021/11/03 02:27:47;;;;;;;33.72;17.48;;;;;;;5.76;78.78;95248.09;5029745;28;20032;-79
2021/11/03 02:30:17;;;;;;;35.50;18.00;;;;;;;5.73;79.19;95248.41;5045257;28;20025;-77
2021/11/03 02:32:43;;;;;;;37.78;18.27;;;;;;;5.68;80.11;95258.66;5014080;28;20029;-77
2021/11/03 02:35:09;;;;;;;32.15;18.23;;;;;;;5.68;79.69;95253.31;5043451;28;20032;-77
2021/11/03 02:37:44;;;;;;;31.88;17.52;;;;;;;5.65;78.98;95256.28;5046882;28;20516;-78
2021/11/03 02:40:13;;;;;;;31.70;17.90;;;;;;;5.66;79.06;95248.16;5031170;28;20108;-78
2021/11/03 02:42:41;;;;;;;38.17;16.30;;;;;;;5.81;78.12;95248.47;5049655;28;20031;-77
2021/11/03 02:45:09;;;;;;;35.60;17.65;;;;;;;5.73;78.64;95261.69;5015725;28;20032;-78
2021/11/03 02:47:35;;;;;;;35.53;16.23;;;;;;;5.67;78.96;95259.66;5015114;28;20392;-76
2021/11/03 02:50:00;;;;;;;30.25;16.67;;;;;;;5.68;79.64;95258.66;5035656;28;20053;-77
2021/11/03 02:52:26;;;;;;;32.15;16.73;;;;;;;5.66;78.87;95247.31;5028025;28;20100;-77
2021/11/03 02:54:52;;;;;;;43.10;16.67;;;;;;;5.65;79.23;95245.66;5028746;28;20026;-77
2021/11/03 02:57:17;;;;;;;33.13;16.80;;;;;;;5.68;79.56;95262.16;5026775;28;20550;-77
2021/11/03 02:59:43;;;;;;;32.10;15.52;;;;;;;5.74;78.84;95263.38;5029830;28;20550;-77
2021/11/03 03:02:09;;;;;;;33.75;14.70;;;;;;;5.76;79.07;95266.72;5027399;28;20030;-77
2021/11/03 03:04:42;;;;;;;28.35;15.50;;;;;;;5.73;78.99;95267.03;5027681;28;20454;-77
2021/11/03 03:07:08;;;;;;;29.08;15.30;;;;;;;5.78;78.96;95275.41;5012097;28;20109;-76
2021/11/03 03:09:34;;;;;;;58.17;14.82;;;;;;;5.76;79.66;95277.38;5026739;28;20503;-80
2021/11/03 03:12:01;;;;;;;27.70;14.85;;;;;;;5.60;79.11;95272.72;5028464;28;20416;-77
2021/11/03 03:14:31;;;;;;;33.55;14.95;;;;;;;5.62;79.94;95283.19;5027817;28;20021;-78
2021/11/03 03:16:56;;;;;;;24.05;14.55;;;;;;;5.61;80.11;95284.19;5028305;28;20044;-77
2021/11/03 03:19:22;;;;;;;31.95;15.35;;;;;;;5.60;79.85;95285.16;5026649;28;20033;-77
2021/11/03 03:21:47;;;;;;;28.33;14.80;;;;;;;5.61;80.33;95293.00;5028951;28;20029;-76
2021/11/03 03:24:13;;;;;;;28.27;14.50;;;;;;;5.64;80.36;95290.03;5029292;28;20021;-78
2021/11/03 03:26:39;;;;;;;36.50;14.80;;;;;;;5.64;80.18;95297.19;5026835;28;20029;-77
2021/11/03 03:29:05;;;;;;;29.98;14.65;;;;;;;5.70;80.01;95293.94;5028076;28;20033;-77
2021/11/03 03:31:30;;;;;;;27.23;13.40;;;;;;;5.78;79.56;95301.16;5026449;28;20036;-77
2021/11/03 03:33:57;;;;;;;31.45;14.00;;;;;;;5.77;79.42;95300.31;5029613;28;20029;-76
2021/11/03 03:36:23;;;;;;;28.05;14.95;;;;;;;5.73;79.97;95298.97;5026191;28;20570;-76
2021/11/03 03:38:49;;;;;;;25.70;14.45;;;;;;;5.85;79.61;95301.41;5029306;28;20026;-76
2021/11/03 03:41:15;;;;;;;30.70;14.15;;;;;;;5.82;79.04;95305.19;5010584;28;20036;-78
2021/11/03 03:43:41;;;;;;;30.10;14.10;;;;;;;5.82;79.09;95310.50;5028286;28;20033;-75
2021/11/03 03:46:06;;;;;;;27.40;13.43;;;;;;;5.82;79.02;95310.50;5031633;28;20017;-79
2021/11/03 03:48:32;;;;;;;24.25;13.50;;;;;;;5.83;79.25;95317.53;5046634;28;20254;-77
2021/11/03 03:50:57;;;;;;;24.67;12.93;;;;;;;5.87;79.00;95318.06;5047572;28;20041;-77
2021/11/03 03:53:23;;;;;;;27.10;13.50;;;;;;;5.90;79.46;95323.09;5045716;28;20025;-77
2021/11/03 03:55:49;;;;;;;23.65;12.93;;;;;;;6.02;77.79;95329.88;5048549;28;20025;-78
2021/11/03 03:58:14;;;;;;;25.08;13.00;;;;;;;5.94;78.45;95330.63;5045876;28;20066;-77
2021/11/03 04:00:40;;;;;;;23.30;12.60;;;;;;;5.89;78.96;95332.06;5047038;28;20037;-78
2021/11/03 04:03:06;;;;;;;29.95;12.40;;;;;;;5.96;79.16;95340.28;5030660;28;20368;-78
2021/11/03 04:05:32;;;;;;;27.67;13.18;;;;;;;5.99;78.98;95346.16;5046061;28;20491;-78
2021/11/03 04:07:57;;;;;;;30.75;12.20;;;;;;;5.98;77.98;95343.63;5014148;28;20021;-77
2021/11/03 04:10:23;;;;;;;22.50;12.07;;;;;;;5.97;77.74;95342.78;5045435;28;20017;-77
2021/11/03 04:12:48;;;;;;;30.33;11.90;;;;;;;5.92;78.66;95345.06;5030443;28;20041;-79
2021/11/03 04:15:14;;;;;;;24.35;12.07;;;;;;;5.80;79.01;95342.59;5045269;28;20427;-78
2021/11/03 04:17:39;;;;;;;27.15;13.30;;;;;;;5.79;79.38;95348.06;5046999;28;20029;-78
2021/11/03 04:20:06;;;;;;;25.42;12.52;;;;;;;5.80;79.47;95337.28;5045115;28;20053;-78
2021/11/03 04:22:31;;;;;;;20.90;11.98;;;;;;;5.78;79.28;95344.59;5048086;28;20037;-77
2021/11/03 04:24:57;;;;;;;16.73;10.10;;;;;;;5.76;78.99;95340.41;5029740;28;20077;-77
2021/11/03 04:27:22;;;;;;;23.55;12.40;;;;;;;5.74;78.96;95340.53;5045665;28;20090;-78
2021/11/03 04:29:47;;;;;;;19.33;10.75;;;;;;;5.75;79.00;95338.72;5047980;28;20576;-76
2021/11/03 04:32:13;;;;;;;27.20;10.80;;;;;;;5.72;78.74;95339.88;5046394;28;20475;-78
2021/11/03 04:34:38;;;;;;;20.30;11.50;;;;;;;5.73;78.80;95338.03;5030789;28;20110;-78
2021/11/03 04:37:04;;;;;;;33.35;11.32;;;;;;;5.72;78.50;95339.03;5037434;28;20029;-76
2021/11/03 04:39:29;;;;;;;23.50;10.52;;;;;;;5.69;77.73;95351.63;5035408;28;20029;-77
2021/11/03 04:41:55;;;;;;;23.20;11.82;;;;;;;5.67;78.34;95361.59;5010071;28;20466;-76
2021/11/03 04:44:20;;;;;;;21.70;11.77;;;;;;;5.65;78.88;95355.59;5046458;28;20021;-76
2021/11/03 04:46:46;;;;;;;23.90;11.13;;;;;;;5.76;77.68;95364.34;5047420;28;20025;-76
2021/11/03 04:49:12;;;;;;;19.63;11.32;;;;;;;5.62;79.25;95357.72;5024054;28;20037;-77
2021/11/03 04:51:38;;;;;;;21.05;11.15;;;;;;;5.65;78.70;95371.56;5045371;28;20025;-77
2021/11/03 04:54:03;;;;;;;29.88;12.73;;;;;;;5.60;78.41;95365.00;5044373;28;20407;-77
2021/11/03 04:56:30;;;;;;;21.27;10.93;;;;;;;5.59;78.29;95369.50;5055321;28;20029;-77
2021/11/03 04:58:55;;;;;;;20.80;11.32;;;;;;;5.58;78.26;95362.47;5065641;28;20025;-78
2021/11/03 05:01:22;;;;;;;22.30;11.45;;;;;;;5.57;78.65;95358.16;5042909;28;20495;-76
2021/11/03 05:03:51;;;;;;;19.92;11.13;;;;;;;5.53;78.59;95359.44;5045106;28;20510;-76
2021/11/03 05:06:18;;;;;;;18.85;10.73;;;;;;;5.62;78.35;95358.56;5033547;28;20112;-75
2021/11/03 05:08:44;;;;;;;20.77;12.10;;;;;;;5.59;78.10;95363.31;5028104;28;20034;-78
2021/11/03 05:11:09;;;;;;;26.58;11.88;;;;;;;5.57;78.78;95369.63;5029093;28;20120;-77
2021/11/03 05:13:35;;;;;;;20.42;11.07;;;;;;;5.57;77.57;95369.63;5046745;28;20091;-78
2021/11/03 05:16:01;;;;;;;20.88;12.02;;;;;;;5.52;78.75;95377.22;5043201;28;20060;-78
2021/11/03 05:18:27;;;;;;;23.08;13.15;;;;;;;5.53;79.19;95372.75;5047867;28;20075;-78
2021/11/03 05:20:52;;;;;;;23.73;12.60;;;;;;;5.56;79.02;95389.22;5011645;28;20415;-77
2021/11/03 05:23:17;;;;;;;24.20;12.82;;;;;;;5.57;79.49;95384.75;5042829;28;20024;-78
2021/11/03 05:25:43;;;;;;;25.15;12.15;;;;;;;5.57;78.74;95390.06;5045520;28;20037;-78
2021/11/03 05:28:09;;;;;;;22.20;11.52;;;;;;;5.59;79.83;95388.13;5027505;28;20025;-78
2021/11/03 05:30:36;;;;;;;22.92;12.10;;;;;;;5.55;79.27;95384.91;5011785;28;20041;-79
2021/11/03 05:33:01;;;;;;;29.73;11.32;;;;;;;5.60;79.06;95396.91;5023777;28;20030;-80
2021/11/03 05:35:27;;;;;;;33.15;10.85;;;;;;;5.53;78.31;95389.53;5028063;28;20419;-78
2021/11/03 05:37:52;;;;;;;22.83;11.90;;;;;;;5.55;78.84;95387.56;5026337;28;20266;-79
2021/11/03 05:40:21;;;;;;;21.00;11.75;;;;;;;5.58;79.50;95391.75;5025607;28;20064;-77
2021/11/03 05:42:46;;;;;;;22.35;12.13;;;;;;;5.59;79.40;95387.28;5010948;28;20524;-77
2021/11/03 05:45:12;;;;;;;24.20;12.18;;;;;;;5.62;78.60;95387.81;5009290;28;20105;-76
2021/11/03 05:47:37;;;;;;;25.98;12.75;;;;;;;5.54;79.16;95399.19;5027477;28;20087;-76
2021/11/03 05:50:04;;;;;;;31.92;12.60;;;;;;;5.48;79.68;95413.06;5024827;28;20039;-77
2021/11/03 05:52:30;;;;;;;28.25;13.10;;;;;;;5.50;78.97;95418.22;5021431;28;20040;-78
2021/11/03 05:54:55;;;;;;;26.85;13.27;;;;;;;5.53;79.18;95424.13;5023782;28;20018;-76
2021/11/03 05:57:32;;;;;;;23.60;12.43;;;;;;;5.53;79.25;95425.94;5026612;28;20767;-76
2021/11/03 05:59:58;;;;;;;28.95;13.40;;;;;;;5.52;79.82;95418.94;5029908;28;20068;-76
2021/11/03 06:02:23;;;;;;;27.75;12.90;;;;;;;5.52;80.08;95418.94;5024299;28;20088;-76
2021/11/03 06:04:49;;;;;;;27.48;12.75;;;;;;;5.63;79.31;95417.91;5036080;28;20108;-76
2021/11/03 06:07:14;;;;;;;32.75;15.63;;;;;;;5.65;80.02;95427.44;5043450;28;20029;-77
2021/11/03 06:09:40;;;;;;;23.65;12.38;;;;;;;5.68;78.82;95434.28;5046672;28;20047;-76
2021/11/03 06:12:06;;;;;;;46.67;13.15;;;;;;;5.66;79.38;95421.13;5019288;28;20476;-76
2021/11/03 06:14:32;;;;;;;50.53;15.18;;;;;;;5.52;79.05;95416.28;5039872;28;20028;-77
2021/11/03 06:16:57;;;;;;;27.10;13.35;;;;;;;5.43;79.88;95418.81;5045053;28;20029;-75
2021/11/03 06:19:23;;;;;;;31.17;14.60;;;;;;;5.38;80.22;95428.22;5029378;28;20052;-76
2021/11/03 06:21:48;;;;;;;37.17;13.70;;;;;;;5.36;80.58;95447.00;5020832;28;20021;-77
2021/11/03 06:24:13;;;;;;;28.13;12.80;;;;;;;5.42;80.39;95446.41;5034885;28;20020;-78
2021/11/03 06:26:39;;;;;;;27.50;12.68;;;;;;;5.44;79.98;95448.94;5050353;28;20021;-75
2021/11/03 06:29:06;;;;;;;27.63;11.43;;;;;;;5.40;79.49;95443.06;5042415;28;20029;-76
2021/11/03 06:31:33;;;;;;;31.65;13.57;;;;;;;5.18;80.72;95438.91;5010585;28;20037;-78
2021/11/03 06:33:59;;;;;;;28.55;12.80;;;;;;;5.20;81.42;95447.59;5041308;28;20071;-76
2021/11/03 06:36:25;;;;;;;43.55;13.18;;;;;;;5.24;81.62;95453.47;5043692;28;20029;-77
2021/11/03 06:38:50;;;;;;;31.48;14.13;;;;;;;5.29;80.78;95452.03;5047091;28;20372;-77
2021/11/03 06:41:18;;;;;;;34.13;15.18;;;;;;;5.36;80.71;95454.13;5048402;28;20024;-77
2021/11/03 06:43:44;;;;;;;27.70;13.07;;;;;;;5.44;81.01;95472.88;5045505;28;20033;-75
2021/11/03 06:46:09;;;;;;;26.13;12.30;;;;;;;5.51;80.04;95467.81;5029373;28;20032;-75
2021/11/03 06:48:35;;;;;;;23.10;11.90;;;;;;;5.52;79.79;95466.81;5009180;28;20028;-75
2021/11/03 06:51:00;;;;;;;24.42;11.18;;;;;;;5.63;80.12;95458.66;5022795;28;20120;-76
2021/11/03 06:53:27;;;;;;;27.30;14.48;;;;;;;5.67;79.73;95459.22;5047328;28;20040;-76
2021/11/03 06:55:52;;;;;;;32.25;14.95;;;;;;;5.66;80.02;95468.16;5045154;28;20024;-75
2021/11/03 06:58:18;;;;;;;25.73;13.32;;;;;;;5.77;80.28;95465.34;5038069;28;20403;-77
2021/11/03 07:00:44;;;;;;;28.63;13.65;;;;;;;5.80;79.39;95466.88;5041499;28;20125;-76
2021/11/03 07:03:10;;;;;;;32.00;13.82;;;;;;;5.85;79.99;95479.75;5035011;28;20029;-76
2021/11/03 07:05:36;;;;;;;32.20;15.25;;;;;;;5.90;79.57;95469.50;5048139;28;20381;-77
2021/11/03 07:08:02;;;;;;;30.48;15.15;;;;;;;6.01;79.64;95471.13;5042967;28;20037;-76
2021/11/03 07:10:33;;;;;;;30.00;14.43;;;;;;;6.06;79.76;95483.03;5021131;28;20467;-76
2021/11/03 07:12:58;;;;;;;31.63;15.30;;;;;;;6.14;79.91;95482.28;5045290;28;20107;-79
2021/11/03 07:15:24;;;;;;;32.00;15.10;;;;;;;6.16;80.36;95479.47;5048777;28;20472;-78
2021/11/03 07:17:49;;;;;;;23.48;11.13;;;;;;;6.14;79.85;95484.13;5046308;28;20427;-76
2021/11/03 07:20:15;;;;;;;26.85;12.98;;;;;;;6.21;79.52;95492.38;5041731;28;20056;-76
2021/11/03 07:22:40;;;;;;;26.25;12.88;;;;;;;6.28;79.12;95490.78;5038377;28;20037;-76
2021/11/03 07:25:07;;;;;;;26.75;13.50;;;;;;;6.32;78.56;95496.66;5042437;28;20036;-77
2021/11/03 07:27:33;;;;;;;27.30;14.13;;;;;;;6.36;79.09;95506.03;5036103;28;20021;-77
2021/11/03 07:29:58;;;;;;;28.92;12.88;;;;;;;6.41;78.26;95498.44;5045475;28;20082;-76
2021/11/03 07:32:25;;;;;;;29.58;12.20;;;;;;;6.47;78.19;95500.50;5027128;28;20024;-77
2021/11/03 07:34:50;;;;;;;28.17;12.93;;;;;;;6.57;78.77;95511.09;5043717;28;20044;-77
2021/11/03 07:37:16;;;;;;;28.65;12.80;;;;;;;6.64;78.43;95514.00;5045548;28;20411;-77
2021/11/03 07:39:41;;;;;;;23.27;12.63;;;;;;;6.73;77.96;95510.41;5026912;28;20056;-77
2021/11/03 07:42:07;;;;;;;43.25;15.77;;;;;;;6.67;77.65;95519.03;5046610;28;20017;-76
2021/11/03 07:44:33;;;;;;;31.92;15.18;;;;;;;6.62;78.21;95521.28;5045567;28;20060;-77
2021/11/03 07:46:58;;;;;;;41.92;17.65;;;;;;;6.65;78.32;95527.19;5039709;28;20036;-78
2021/11/03 07:49:24;;;;;;;41.38;17.25;;;;;;;6.66;77.83;95533.31;5044774;28;20059;-75
2021/11/03 07:51:49;;;;;;;35.85;17.20;;;;;;;6.59;78.34;95525.13;5038587;28;20477;-77
2021/11/03 07:54:14;;;;;;;33.75;15.77;;;;;;;6.66;78.51;95520.84;5041275;28;20051;-77
2021/11/03 07:56:41;;;;;;;42.97;18.70;;;;;;;6.65;78.21;95523.66;5036863;28;20029;-75
2021/11/03 07:59:06;;;;;;;34.92;16.88;;;;;;;6.63;78.12;95514.97;5031188;28;20479;-75
2021/11/03 08:01:32;;;;;;;35.58;17.23;;;;;;;6.70;78.42;95509.88;5035081;28;20040;-78
2021/11/03 08:03:57;;;;;;;35.97;17.20;;;;;;;6.77;78.45;95514.44;5045897;28;20029;-77
2021/11/03 08:06:23;;;;;;;38.45;18.10;;;;;;;6.82;78.32;95518.50;5045519;28;20033;-76
2021/11/03 08:08:57;;;;;;;35.08;16.95;;;;;;;6.92;77.40;95513.94;5043284;28;20510;-76
2021/11/03 08:11:26;;;;;;;38.47;18.13;;;;;;;6.94;77.76;95509.28;5041627;28;20071;-77
2021/11/03 08:13:51;;;;;;;37.35;17.92;;;;;;;7.02;77.86;95501.38;5042730;28;20188;-79
2021/11/03 08:16:17;;;;;;;33.50;16.65;;;;;;;7.11;77.11;95498.78;5045216;28;20032;-77
2021/11/03 08:18:43;;;;;;;32.92;18.08;;;;;;;7.17;77.73;95498.16;5040482;28;20037;-73
2021/11/03 08:21:10;;;;;;;34.20;16.40;;;;;;;7.20;77.48;95497.84;5044654;28;20025;-76
2021/11/03 08:23:35;;;;;;;42.13;16.85;;;;;;;7.26;77.03;95497.22;5029069;28;20515;-77
2021/11/03 08:26:01;;;;;;;47.78;19.85;;;;;;;7.29;77.05;95496.06;5045529;28;20024;-78
2021/11/03 08:28:26;;;;;;;48.75;20.98;;;;;;;7.25;76.77;95487.56;5045925;28;20111;-76
2021/11/03 08:30:53;;;;;;;39.67;18.90;;;;;;;7.25;77.11;95486.72;5041232;28;20045;-76
2021/11/03 08:33:25;;;;;;;40.20;18.05;;;;;;;7.29;76.87;95485.41;5026084;28;20025;-76
2021/11/03 08:35:51;;;;;;;40.78;20.40;;;;;;;7.34;76.90;95490.25;5025374;28;20060;-77
2021/11/03 08:38:17;;;;;;;40.67;20.25;;;;;;;7.38;77.22;95479.13;5037883;28;20060;-78
2021/11/03 08:40:44;;;;;;;40.28;20.20;;;;;;;7.40;77.29;95478.97;5022449;28;20440;-75
2021/11/03 08:43:11;;;;;;;43.30;21.73;;;;;;;7.39;76.45;95490.66;5022419;28;20029;-79
2021/11/03 08:45:37;;;;;;;48.92;21.65;;;;;;;7.39;76.13;95490.66;5039631;28;20024;-79
2021/11/03 08:48:02;;;;;;;41.92;21.70;;;;;;;7.40;76.44;95500.31;4999530;28;20025;-77
2021/11/03 08:50:29;;;;;;;56.95;22.52;;;;;;;7.41;76.52;95502.84;5039563;28;20029;-78
2021/11/03 08:52:55;;;;;;;47.65;23.88;;;;;;;7.42;76.55;95509.84;5040214;28;20045;-77
2021/11/03 08:55:21;;;;;;;49.13;23.90;;;;;;;7.39;77.15;95496.81;5034814;28;20045;-75
2021/11/03 08:57:46;;;;;;;53.55;27.08;;;;;;;7.46;76.51;95497.03;5037979;28;20439;-77
2021/11/03 09:00:20;;;;;;;55.30;26.17;;;;;;;7.46;75.71;95489.03;5038657;28;20031;-76
2021/11/03 09:02:47;;;;;;;53.72;25.20;;;;;;;7.54;75.65;95499.75;5023649;28;20021;-76
2021/11/03 09:05:12;;;;;;;57.08;27.52;;;;;;;7.44;76.12;95501.69;5036006;28;20495;-76
2021/11/03 09:07:37;;;;;;;54.20;26.02;;;;;;;7.46;76.00;95497.03;5035681;28;20036;-76
2021/11/03 09:10:05;;;;;;;60.47;27.05;;;;;;;7.44;76.34;95490.16;5036973;28;20029;-76
2021/11/03 09:12:30;;;;;;;58.70;24.90;;;;;;;7.51;76.28;95494.72;5039881;28;20546;-76
2021/11/03 09:14:56;;;;;;;61.25;28.08;;;;;;;7.56;76.00;95490.75;5039153;28;20025;-79
2021/11/03 09:17:21;;;;;;;61.58;29.27;;;;;;;7.59;75.89;95503.78;5017065;28;20100;-77
2021/11/03 09:19:47;;;;;;;67.38;29.27;;;;;;;7.58;76.90;95486.13;5038642;28;20041;-77
2021/11/03 09:22:12;;;;;;;66.97;29.00;;;;;;;7.60;77.83;95481.44;5035625;28;20467;-77
2021/11/03 09:24:38;;;;;;;66.68;28.42;;;;;;;7.69;77.39;95483.16;5024255;28;20028;-76
2021/11/03 09:27:08;;;;;;;78.38;34.00;;;;;;;7.69;76.44;95485.81;5037558;28;20467;-77
2021/11/03 09:29:34;;;;;;;72.55;33.63;;;;;;;7.77;75.90;95488.56;5038119;28;20021;-76
2021/11/03 09:31:59;;;;;;;83.35;33.38;;;;;;;7.76;76.42;95486.88;5042843;28;20097;-78
2021/11/03 09:34:25;;;;;;;80.25;35.83;;;;;;;7.67;76.50;95482.50;5038617;28;20029;-79
2021/11/03 09:36:51;;;;;;;79.05;34.65;;;;;;;7.67;76.71;95482.50;5043917;28;20041;-78
2021/11/03 09:39:16;;;;;;;89.15;36.83;;;;;;;7.76;76.24;95478.88;5034657;28;20029;-76
2021/11/03 09:41:49;;;;;;;80.47;34.97;;;;;;;7.79;76.51;95470.56;5045489;28;20689;-79
2021/11/03 09:44:24;;;;;;;86.10;35.72;;;;;;;7.87;76.30;95480.44;5017488;28;20029;-78
2021/11/03 09:46:56;;;;;;;75.78;35.47;;;;;;;7.94;76.25;95467.28;5034785;28;20531;-78
2021/11/03 09:49:31;;;;;;;78.82;33.88;;;;;;;7.98;76.08;95465.94;5040735;28;20632;-80
2021/11/03 09:52:00;;;;;;;81.13;35.85;;;;;;;7.98;76.51;95468.63;5044074;28;20028;-78
2021/11/03 09:54:35;;;;;;;91.05;37.92;;;;;;;7.98;76.40;95457.94;5044073;28;20025;-79
2021/11/03 09:57:21;;;;;;;88.57;38.30;;;;;;;8.00;76.49;95444.44;5026822;28;20033;-77
2021/11/03 10:00:09;;;;;;;82.15;35.33;;;;;;;8.11;76.40;95440.66;5040726;28;20112;-78
2021/11/03 10:03:22;;;;;;;80.15;34.47;;;;;;;8.15;76.02;95436.66;5043743;28;20029;-78
2021/11/03 10:06:12;;;;;;;81.40;33.83;;;;;;;8.21;75.85;95430.66;5022469;28;20423;-78
2021/11/03 10:08:40;;;;;;;90.70;35.63;;;;;;;8.24;75.75;95424.13;5044726;28;20095;-77
2021/11/03 10:11:17;;;;;;;86.43;37.10;;;;;;;8.25;75.97;95421.31;5046511;28;20115;-77
2021/11/03 10:13:44;;;;;;;96.70;40.13;;;;;;;8.15;76.13;95420.63;5037209;28;20083;-78
2021/11/03 10:16:13;;;;;;;87.50;36.72;;;;;;;8.16;75.77;95427.63;5042109;28;20512;-77
2021/11/03 10:19:13;;;;;;;100.40;38.33;;;;;;;8.21;76.46;95422.63;5038307;28;20029;-78
2021/11/03 10:21:41;;;;;;;88.05;36.90;;;;;;;8.26;76.41;95419.47;5035107;28;20040;-76
2021/11/03 10:24:13;;;;;;;92.55;38.20;;;;;;;8.34;75.94;95422.16;5038843;28;20091;-77
2021/11/03 10:26:55;;;;;;;90.10;39.40;;;;;;;8.39;76.17;95411.84;5039755;28;20025;-79
2021/11/03 10:29:35;;;;;;;102.57;40.97;;;;;;;8.40;76.35;95407.31;5040583;28;20151;-78
2021/11/03 10:32:07;;;;;;;87.85;36.55;;;;;;;8.43;75.51;95409.66;5042130;28;20025;-78
2021/11/03 10:34:43;;;;;;;89.40;38.95;;;;;;;8.55;75.60;95415.56;5038754;28;20029;-78
2021/11/03 10:37:22;;;;;;;105.25;42.67;;;;;;;8.49;76.44;95414.38;5038838;28;20118;-78
2021/11/03 10:40:17;;;;;;;91.53;40.38;;;;;;;8.58;76.13;95411.72;5021473;28;20555;-77
2021/11/03 10:43:02;;;;;;;97.68;40.40;;;;;;;8.73;76.59;95404.72;5040511;28;20025;-78
2021/11/03 10:45:36;;;;;;;100.75;41.10;;;;;;;8.83;76.12;95407.25;5030483;28;20032;-78
2021/11/03 10:48:22;;;;;;;90.32;40.97;;;;;;;8.91;76.82;95406.41;5030735;28;20588;-78
2021/11/03 10:51:10;;;;;;;109.68;39.63;;;;;;;9.05;77.29;95409.41;5042452;28;20067;-78
2021/11/03 10:53:35;;;;;;;101.60;42.20;;;;;;;9.13;76.50;95402.22;5045267;28;20025;-79
2021/11/03 10:56:15;;;;;;;100.43;40.88;;;;;;;9.25;75.04;95404.53;5049334;28;20025;-79
2021/11/03 10:58:50;;;;;;;100.07;42.08;;;;;;;9.31;75.67;95400.34;5046769;28;20483;-77
2021/11/03 11:01:21;;;;;;;88.07;39.42;;;;;;;9.42;75.33;95400.00;5045997;28;20037;-78
2021/11/03 11:04:03;;;;;;;94.95;41.65;;;;;;;9.52;73.92;95400.66;5048733;28;20035;-78
2021/11/03 11:06:35;;;;;;;84.45;39.65;;;;;;;9.55;72.69;95404.81;5045788;28;20025;-77
2021/11/03 11:09:04;;;;;;;85.13;38.63;;;;;;;9.55;74.09;95401.28;5029733;28;20033;-77
2021/11/03 11:11:32;;;;;;;81.93;38.83;;;;;;;9.59;73.60;95400.78;5043363;28;20025;-78
2021/11/03 11:14:01;;;;;;;69.50;33.25;;;;;;;9.64;72.92;95400.28;5035499;28;20029;-78
2021/11/03 11:16:46;;;;;;;66.50;32.38;;;;;;;9.65;73.55;95399.28;5043469;28;20051;-78
2021/11/03 11:19:28;;;;;;;66.63;31.50;;;;;;;9.71;74.15;95392.38;5038448;28;20060;-80
2021/11/03 11:22:00;;;;;;;66.00;32.60;;;;;;;9.75;74.23;95389.19;5018395;28;20045;-78
2021/11/03 11:24:50;;;;;;;66.15;31.55;;;;;;;9.85;73.26;95388.16;5039963;28;20456;-78
2021/11/03 11:27:29;;;;;;;72.25;34.35;;;;;;;9.77;74.33;95373.78;5041547;28;20021;-79